createdAt,value
2023-02-23T00:00:28.835Z,44.63
2023-02-23T00:02:58.946Z,44.20
2023-02-23T00:05:26.623Z,44.93
2023-02-23T00:07:54.266Z,46.83
2023-02-23T00:10:21.427Z,51.40
2023-02-23T00:12:49.541Z,51.47
2023-02-23T00:15:16.183Z,49.53
2023-02-23T00:17:42.757Z,53.00
2023-02-23T00:20:11.604Z,52.23
2023-02-23T00:22:41.524Z,52.80
2023-02-23T00:25:09.076Z,53.43
2023-02-23T00:27:44.239Z,54.17
2023-02-23T00:30:12.456Z,52.50
2023-02-23T00:32:39.533Z,58.73
2023-02-23T00:35:11.654Z,53.80
2023-02-23T00:37:38.329Z,55.47
2023-02-23T00:40:13.224Z,53.57
2023-02-23T00:42:40.310Z,55.13
2023-02-23T00:45:11.760Z,51.83
2023-02-23T00:47:39.311Z,54.40
2023-02-23T00:50:06.223Z,55.33
2023-02-23T00:52:33.194Z,56.57
2023-02-23T00:55:02.797Z,52.13
2023-02-23T00:57:29.429Z,56.60
2023-02-23T00:59:56.100Z,57.00
2023-02-23T01:02:25.383Z,56.90
2023-02-23T01:04:52.016Z,58.20
2023-02-23T01:07:18.648Z,58.10
2023-02-23T01:09:45.198Z,60.37
2023-02-23T01:12:12.263Z,52.47
2023-02-23T01:14:38.980Z,56.90
2023-02-23T01:17:05.595Z,55.73
2023-02-23T01:19:34.244Z,53.63
2023-02-23T01:22:03.637Z,54.37
2023-02-23T01:24:30.289Z,53.57
2023-02-23T01:26:56.896Z,50.67
2023-02-23T01:29:23.817Z,53.80
2023-02-23T01:31:53.618Z,57.30
2023-02-23T01:34:21.828Z,52.43
2023-02-23T01:36:48.598Z,62.43
2023-02-23T01:39:16.559Z,63.03
2023-02-23T01:41:43.270Z,63.37
2023-02-23T01:44:12.674Z,61.67
2023-02-23T01:46:40.682Z,64.13
2023-02-23T01:49:15.546Z,64.73
2023-02-23T01:51:55.793Z,58.37
2023-02-23T01:54:24.800Z,62.03
2023-02-23T01:56:58.355Z,59.17
2023-02-23T01:59:47.559Z,61.47
2023-02-23T02:02:14.388Z,68.23
2023-02-23T02:04:45.368Z,62.93
2023-02-23T02:07:14.382Z,64.63
2023-02-23T02:09:57.142Z,74.13
2023-02-23T02:12:23.755Z,73.60
2023-02-23T02:14:52.072Z,77.17
2023-02-23T02:17:21.016Z,72.80
2023-02-23T02:19:50.967Z,74.43
2023-02-23T02:22:36.147Z,73.20
2023-02-23T02:25:12.070Z,74.77
2023-02-23T02:28:12.060Z,69.23
2023-02-23T02:30:44.832Z,76.93
2023-02-23T02:33:12.451Z,68.00
2023-02-23T02:35:47.877Z,72.83
2023-02-23T02:38:26.185Z,71.23
2023-02-23T02:41:03.995Z,77.10
2023-02-23T02:43:30.521Z,66.70
2023-02-23T02:46:02.446Z,74.03
2023-02-23T02:48:46.769Z,74.03
2023-02-23T02:51:17.625Z,73.83
2023-02-23T02:53:44.516Z,70.63
2023-02-23T02:56:12.300Z,75.10
2023-02-23T02:58:39.155Z,77.87
2023-02-23T03:01:27.495Z,68.97
2023-02-23T03:04:12.974Z,76.30
2023-02-23T03:07:04.434Z,74.27
2023-02-23T03:10:07.961Z,79.03
2023-02-23T03:13:12.495Z,86.87
2023-02-23T03:16:00.930Z,75.93
2023-02-23T03:18:49.845Z,78.30
2023-02-23T03:21:39.861Z,76.90
2023-02-23T03:24:25.200Z,73.77
2023-02-23T03:27:16.153Z,76.40
2023-02-23T03:30:01.749Z,72.33
2023-02-23T03:32:58.718Z,78.63
2023-02-23T03:35:45.593Z,77.23
2023-02-23T03:38:35.169Z,79.10
2023-02-23T03:41:21.450Z,77.67
2023-02-23T03:44:15.628Z,77.17
2023-02-23T03:47:01.979Z,77.43
2023-02-23T03:49:49.932Z,80.00
2023-02-23T03:52:37.438Z,72.23
2023-02-23T03:55:31.808Z,76.80
2023-02-23T03:58:20.331Z,78.17
2023-02-23T04:01:07.586Z,73.27
2023-02-23T04:03:54.883Z,79.37
2023-02-23T04:06:42.339Z,70.77
2023-02-23T04:09:27.554Z,73.80
2023-02-23T04:12:19.465Z,73.00
2023-02-23T04:14:50.908Z,65.97
2023-02-23T04:17:18.481Z,63.47
2023-02-23T04:20:03.802Z,61.23
2023-02-23T04:22:30.488Z,60.13
2023-02-23T04:24:57.052Z,63.73
2023-02-23T04:27:24.075Z,64.40
2023-02-23T04:29:50.716Z,60.10
2023-02-23T04:32:18.421Z,58.33
2023-02-23T04:34:45.033Z,60.60
2023-02-23T04:37:12.717Z,66.07
2023-02-23T04:39:39.558Z,59.53
2023-02-23T04:42:06.204Z,61.00
2023-02-23T04:44:32.777Z,65.40
2023-02-23T04:46:59.464Z,68.10
2023-02-23T04:49:26.119Z,66.43
2023-02-23T04:51:52.694Z,65.83
2023-02-23T04:54:19.340Z,67.47
2023-02-23T04:56:46.003Z,62.60
2023-02-23T04:59:13.386Z,69.27
2023-02-23T05:01:40.021Z,67.17
2023-02-23T05:04:06.662Z,72.93
2023-02-23T05:06:33.275Z,70.67
2023-02-23T05:08:59.958Z,70.03
2023-02-23T05:11:27.848Z,68.83
2023-02-23T05:13:54.707Z,76.70
2023-02-23T05:16:21.522Z,67.07
2023-02-23T05:18:48.336Z,70.43
2023-02-23T05:21:14.919Z,67.63
2023-02-23T05:23:41.689Z,67.07
2023-02-23T05:26:10.447Z,75.50
2023-02-23T05:28:38.672Z,64.13
2023-02-23T05:31:06.046Z,65.90
2023-02-23T05:33:33.284Z,59.80
2023-02-23T05:36:00.243Z,61.27
2023-02-23T05:38:27.401Z,58.67
2023-02-23T05:40:53.992Z,67.13
2023-02-23T05:43:20.605Z,66.00
2023-02-23T05:45:47.245Z,61.77
2023-02-23T05:48:14.103Z,67.17
2023-02-23T05:50:40.744Z,57.70
2023-02-23T05:53:07.453Z,61.77
2023-02-23T05:55:34.020Z,62.57
2023-02-23T05:58:00.866Z,56.77
2023-02-23T06:00:27.972Z,55.23
2023-02-23T06:02:54.774Z,52.70
2023-02-23T06:05:21.415Z,54.33
2023-02-23T06:07:48.275Z,50.73
2023-02-23T06:10:14.966Z,55.53
2023-02-23T06:12:41.676Z,53.13
2023-02-23T06:15:08.688Z,54.03
2023-02-23T06:17:35.786Z,57.33
2023-02-23T06:20:05.112Z,53.67
2023-02-23T06:22:31.807Z,54.17
2023-02-23T06:24:58.501Z,50.63
2023-02-23T06:27:26.034Z,56.60
2023-02-23T06:29:52.821Z,47.80
2023-02-23T06:32:19.585Z,54.87
2023-02-23T06:34:48.817Z,51.13
2023-02-23T06:37:15.789Z,50.33
2023-02-23T06:39:42.385Z,53.23
2023-02-23T06:42:08.936Z,53.67
2023-02-23T06:44:35.797Z,50.77
2023-02-23T06:47:05.724Z,47.77
2023-02-23T06:49:32.580Z,51.70
2023-02-23T06:51:59.264Z,51.07
2023-02-23T06:54:26.555Z,51.27
2023-02-23T06:56:54.827Z,54.40
2023-02-23T06:59:21.698Z,51.67
2023-02-23T07:01:48.253Z,53.67
2023-02-23T07:04:16.740Z,52.43
2023-02-23T07:06:43.513Z,58.37
2023-02-23T07:09:10.294Z,61.70
2023-02-23T07:11:38.023Z,57.93
2023-02-23T07:14:04.582Z,53.97
2023-02-23T07:16:31.201Z,56.43
2023-02-23T07:18:57.955Z,61.87
2023-02-23T07:21:24.555Z,67.20
2023-02-23T07:23:51.212Z,67.10
2023-02-23T07:26:18.492Z,69.73
2023-02-23T07:28:45.222Z,69.90
2023-02-23T07:31:12.294Z,70.83
2023-02-23T07:33:38.899Z,64.10
2023-02-23T07:36:05.822Z,70.77
2023-02-23T07:38:32.422Z,60.80
2023-02-23T07:40:59.175Z,66.63
2023-02-23T07:43:25.788Z,60.40
2023-02-23T07:45:52.480Z,63.73
2023-02-23T07:48:19.583Z,58.73
2023-02-23T07:50:46.218Z,58.67
2023-02-23T07:53:13.040Z,58.93
2023-02-23T07:55:40.242Z,53.77
2023-02-23T07:58:07.373Z,58.50
2023-02-23T08:00:34.364Z,58.83
2023-02-23T08:03:01.466Z,56.93
2023-02-23T08:05:28.419Z,55.87
2023-02-23T08:07:55.970Z,55.87
2023-02-23T08:10:23.228Z,58.03
2023-02-23T08:12:49.934Z,52.73
2023-02-23T08:15:16.526Z,53.73
2023-02-23T08:17:43.592Z,59.47
2023-02-23T08:20:10.711Z,58.30
2023-02-23T08:22:48.871Z,52.83
2023-02-23T08:25:15.836Z,55.30
2023-02-23T08:27:42.509Z,62.23
2023-02-23T08:30:09.911Z,67.00
2023-02-23T08:32:36.630Z,62.40
2023-02-23T08:35:03.355Z,61.07
2023-02-23T08:37:30.193Z,63.40
2023-02-23T08:39:57.329Z,67.03
2023-02-23T08:42:23.937Z,69.70
2023-02-23T08:44:50.557Z,74.43
2023-02-23T08:47:21.914Z,74.93
2023-02-23T08:49:48.801Z,67.63
2023-02-23T08:52:15.382Z,69.33
2023-02-23T08:54:42.028Z,66.20
2023-02-23T08:57:09.004Z,71.23
2023-02-23T08:59:37.653Z,70.43
2023-02-23T09:02:04.300Z,68.97
2023-02-23T09:04:35.336Z,63.07
2023-02-23T09:07:03.075Z,74.10
2023-02-23T09:09:29.725Z,66.60
2023-02-23T09:11:57.570Z,74.70
2023-02-23T09:14:26.010Z,70.00
2023-02-23T09:16:52.657Z,65.57
2023-02-23T09:19:20.184Z,69.97
2023-02-23T09:21:46.888Z,65.37
2023-02-23T09:24:13.696Z,63.63
2023-02-23T09:26:40.249Z,69.00
2023-02-23T09:29:07.811Z,67.53
2023-02-23T09:31:34.607Z,64.77
2023-02-23T09:34:02.279Z,93.67
2023-02-23T09:36:29.694Z,93.63
2023-02-23T09:38:57.817Z,119.40
2023-02-23T09:41:37.716Z,167.83
2023-02-23T09:44:21.841Z,146.70
2023-02-23T09:46:48.393Z,201.80
2023-02-23T09:49:19.947Z,233.03
2023-02-23T09:51:48.613Z,218.67
2023-02-23T09:54:16.405Z,311.80
2023-02-23T09:56:49.878Z,222.17
2023-02-23T09:59:17.846Z,255.07
2023-02-23T10:02:03.077Z,195.60
2023-02-23T10:04:37.918Z,244.00
2023-02-23T10:07:04.571Z,132.40
2023-02-23T10:09:52.147Z,133.53
2023-02-23T10:12:24.967Z,99.13
2023-02-23T10:15:10.437Z,91.73
2023-02-23T10:17:39.726Z,82.20
2023-02-23T10:20:23.408Z,79.10
2023-02-23T10:22:51.398Z,70.43
2023-02-23T10:25:23.006Z,75.67
2023-02-23T10:27:50.132Z,76.33
2023-02-23T10:30:24.742Z,79.57
2023-02-23T10:32:51.917Z,71.57
2023-02-23T10:35:20.443Z,81.13
2023-02-23T10:37:47.293Z,80.80
2023-02-23T10:40:15.666Z,89.93
2023-02-23T10:42:42.333Z,68.07
2023-02-23T10:45:28.610Z,66.13
2023-02-23T10:47:57.938Z,64.37
2023-02-23T10:50:28.509Z,69.60
2023-02-23T10:53:16.578Z,62.50
2023-02-23T10:55:46.882Z,69.10
2023-02-23T10:58:18.381Z,67.63
2023-02-23T11:00:52.512Z,68.87
2023-02-23T11:03:24.561Z,62.80
2023-02-23T11:05:53.086Z,65.37
2023-02-23T11:08:25.116Z,60.30
2023-02-23T11:10:57.000Z,60.27
2023-02-23T11:13:24.236Z,57.70
2023-02-23T11:15:58.499Z,58.10
2023-02-23T11:18:26.227Z,62.17
2023-02-23T11:20:53.117Z,61.03
2023-02-23T11:23:23.439Z,63.50
2023-02-23T11:25:52.896Z,62.17
2023-02-23T11:28:30.397Z,67.07
2023-02-23T11:30:58.585Z,60.97
2023-02-23T11:33:29.782Z,66.67
2023-02-23T11:36:00.407Z,61.13
2023-02-23T11:38:28.922Z,58.30
2023-02-23T11:41:02.954Z,60.33
2023-02-23T11:43:29.617Z,71.80
2023-02-23T11:45:57.680Z,61.30
2023-02-23T11:48:30.498Z,69.40
2023-02-23T11:50:57.596Z,73.03
2023-02-23T11:53:29.976Z,82.27
2023-02-23T11:55:59.364Z,81.37
2023-02-23T11:58:32.199Z,73.13
2023-02-23T12:01:01.657Z,69.83
2023-02-23T12:03:30.641Z,70.80
2023-02-23T12:05:59.402Z,67.10
2023-02-23T12:08:47.504Z,73.20
2023-02-23T12:11:17.142Z,77.17
2023-02-23T12:13:47.546Z,67.57
2023-02-23T12:16:27.275Z,80.13
2023-02-23T12:18:59.679Z,74.50
2023-02-23T12:21:30.308Z,79.40
2023-02-23T12:24:13.833Z,76.07
2023-02-23T12:26:53.884Z,85.33
2023-02-23T12:29:23.691Z,93.27
2023-02-23T12:31:54.596Z,87.13
2023-02-23T12:34:30.486Z,90.90
2023-02-23T12:37:00.192Z,83.17
2023-02-23T12:39:32.021Z,79.30
2023-02-23T12:42:07.291Z,86.57
2023-02-23T12:44:41.301Z,82.30
2023-02-23T12:47:15.125Z,72.77
2023-02-23T12:49:44.639Z,66.07
2023-02-23T12:52:22.415Z,62.57
2023-02-23T12:54:49.142Z,60.77
2023-02-23T12:57:23.864Z,70.37
2023-02-23T12:59:53.438Z,53.47
2023-02-23T13:02:20.042Z,50.03
2023-02-23T13:04:49.675Z,54.73
2023-02-23T13:07:16.517Z,47.87
2023-02-23T13:10:06.105Z,52.30
2023-02-23T13:12:45.953Z,42.67
2023-02-23T13:15:24.978Z,43.93
2023-02-23T13:17:51.631Z,35.67
2023-02-23T13:20:22.613Z,35.73
2023-02-23T13:22:56.249Z,32.87
2023-02-23T13:25:33.966Z,29.90
2023-02-23T13:28:01.843Z,31.40
2023-02-23T13:30:32.433Z,30.20
2023-02-23T13:33:03.986Z,34.23
2023-02-23T13:35:35.573Z,29.67
2023-02-23T13:38:13.726Z,31.83
2023-02-23T13:40:46.685Z,31.67
2023-02-23T13:43:23.362Z,31.67
2023-02-23T13:45:58.721Z,28.27
2023-02-23T13:48:29.836Z,28.03
2023-02-23T13:50:59.506Z,29.40
2023-02-23T13:53:35.055Z,24.60
2023-02-23T13:56:06.922Z,29.47
2023-02-23T13:58:33.612Z,25.57
2023-02-23T14:01:05.854Z,28.47
2023-02-23T14:03:36.610Z,30.57
2023-02-23T14:06:04.053Z,30.03
2023-02-23T14:08:33.319Z,28.87
2023-02-23T14:11:00.590Z,27.90
2023-02-23T14:13:29.322Z,27.93
2023-02-23T14:16:14.963Z,27.50
2023-02-23T14:19:00.588Z,25.33
2023-02-23T14:21:33.418Z,23.93
2023-02-23T14:24:19.482Z,23.20
2023-02-23T14:27:08.714Z,27.80
2023-02-23T14:29:40.399Z,26.40
2023-02-23T14:32:13.735Z,27.73
2023-02-23T14:35:00.744Z,27.80
2023-02-23T14:37:32.028Z,25.50
2023-02-23T14:40:31.995Z,26.67
2023-02-23T14:43:01.507Z,25.93
2023-02-23T14:45:30.567Z,26.10
2023-02-23T14:48:06.680Z,24.00
2023-02-23T14:50:34.806Z,24.50
2023-02-23T14:53:02.330Z,26.93
2023-02-23T14:55:32.656Z,21.33
2023-02-23T14:57:59.529Z,24.77
2023-02-23T15:00:26.133Z,24.43
2023-02-23T15:02:57.474Z,25.23
2023-02-23T15:05:29.817Z,24.33
2023-02-23T15:08:01.115Z,27.77
2023-02-23T15:10:30.146Z,30.17
2023-02-23T15:12:57.451Z,26.33
2023-02-23T15:15:25.595Z,28.23
2023-02-23T15:17:57.900Z,27.97
2023-02-23T15:20:28.907Z,26.43
2023-02-23T15:22:57.537Z,27.43
2023-02-23T15:25:26.163Z,30.13
2023-02-23T15:27:53.216Z,29.60
2023-02-23T15:30:21.112Z,28.10
2023-02-23T15:32:48.292Z,29.27
2023-02-23T15:35:15.343Z,28.53
2023-02-23T15:37:46.647Z,29.60
2023-02-23T15:40:19.258Z,28.37
2023-02-23T15:42:48.358Z,27.00
2023-02-23T15:45:15.549Z,28.13
2023-02-23T15:47:42.494Z,28.83
2023-02-23T15:50:09.235Z,30.83
2023-02-23T15:52:39.755Z,31.40
2023-02-23T15:55:10.316Z,32.00
2023-02-23T15:57:54.684Z,33.87
2023-02-23T16:00:33.919Z,38.63
2023-02-23T16:03:02.886Z,39.57
2023-02-23T16:05:41.948Z,41.10
2023-02-23T16:08:23.109Z,41.47
2023-02-23T16:10:51.697Z,37.30
2023-02-23T16:13:21.363Z,42.10
2023-02-23T16:15:49.086Z,41.17
2023-02-23T16:18:20.051Z,45.03
2023-02-23T16:20:57.502Z,39.40
2023-02-23T16:23:33.440Z,42.77
2023-02-23T16:26:01.876Z,38.27
2023-02-23T16:28:30.963Z,36.03
2023-02-23T16:31:02.043Z,37.03
2023-02-23T16:34:03.508Z,37.27
2023-02-23T16:36:41.191Z,40.93
2023-02-23T16:39:11.439Z,37.90
2023-02-23T16:41:38.303Z,37.67
2023-02-23T16:44:06.088Z,39.13
2023-02-23T16:46:41.213Z,37.73
2023-02-23T16:49:10.165Z,37.60
2023-02-23T16:51:37.062Z,36.33
2023-02-23T16:54:04.144Z,37.97
2023-02-23T16:56:31.348Z,34.60
2023-02-23T16:59:01.248Z,34.57
2023-02-23T17:01:27.938Z,34.30
2023-02-23T17:03:54.725Z,35.60
2023-02-23T17:06:22.270Z,36.87
2023-02-23T17:08:57.414Z,35.07
2023-02-23T17:11:24.730Z,36.03
2023-02-23T17:13:51.529Z,33.80
2023-02-23T17:16:18.657Z,32.30
2023-02-23T17:18:45.518Z,32.70
2023-02-23T17:21:14.379Z,33.43
2023-02-23T17:24:07.822Z,30.80
2023-02-23T17:26:34.513Z,35.33
2023-02-23T17:29:01.484Z,36.90
2023-02-23T17:31:28.874Z,34.67
2023-02-23T17:33:55.826Z,35.17
2023-02-23T17:36:23.932Z,33.50
2023-02-23T17:38:50.772Z,32.43
2023-02-23T17:41:18.623Z,33.07
2023-02-23T17:43:45.670Z,33.53
2023-02-23T17:46:13.171Z,31.47
2023-02-23T17:48:40.899Z,31.67
2023-02-23T17:51:12.088Z,29.17
2023-02-23T17:53:39.846Z,30.93
2023-02-23T17:56:06.655Z,30.73
2023-02-23T17:58:33.268Z,33.87
2023-02-23T18:01:03.924Z,29.60
2023-02-23T18:03:32.180Z,32.97
2023-02-23T18:05:59.720Z,31.47
2023-02-23T18:08:26.298Z,32.43
2023-02-23T18:10:54.310Z,31.13
2023-02-23T18:13:21.353Z,30.30
2023-02-23T18:15:48.911Z,31.90
2023-02-23T18:18:15.910Z,29.47
2023-02-23T18:20:48.199Z,26.87
2023-02-23T18:23:15.541Z,31.00
2023-02-23T18:25:42.211Z,28.20
2023-02-23T18:28:10.370Z,27.40
2023-02-23T18:30:37.715Z,26.23
2023-02-23T18:33:05.111Z,28.80
2023-02-23T18:35:33.377Z,25.83
2023-02-23T18:38:01.236Z,25.87
2023-02-23T18:40:27.932Z,27.67
2023-02-23T18:42:55.809Z,26.60
2023-02-23T18:45:22.401Z,26.83
2023-02-23T18:47:49.438Z,24.87
2023-02-23T18:50:19.354Z,22.50
2023-02-23T18:52:47.276Z,25.90
2023-02-23T18:55:14.496Z,26.43
2023-02-23T18:57:41.446Z,31.30
2023-02-23T19:00:13.679Z,27.60
2023-02-23T19:02:41.516Z,26.83
2023-02-23T19:05:09.034Z,27.87
2023-02-23T19:07:35.694Z,25.90
2023-02-23T19:10:02.328Z,26.60
2023-02-23T19:12:29.338Z,26.63
2023-02-23T19:14:57.689Z,28.53
2023-02-23T19:17:28.993Z,27.10
2023-02-23T19:19:56.212Z,25.37
2023-02-23T19:22:24.103Z,27.40
2023-02-23T19:24:50.795Z,26.63
2023-02-23T19:27:17.830Z,28.37
2023-02-23T19:29:45.973Z,26.20
2023-02-23T19:32:16.460Z,26.53
2023-02-23T19:34:43.945Z,27.93
2023-02-23T19:37:10.601Z,26.63
2023-02-23T19:39:37.207Z,27.77
2023-02-23T19:42:03.987Z,29.03
2023-02-23T19:44:30.685Z,23.93
2023-02-23T19:46:57.674Z,28.00
2023-02-23T19:49:24.806Z,24.37
2023-02-23T19:51:52.998Z,26.37
2023-02-23T19:54:20.263Z,26.07
2023-02-23T19:56:47.210Z,29.17
2023-02-23T19:59:13.997Z,30.13
2023-02-23T20:01:40.624Z,25.83
2023-02-23T20:04:09.456Z,26.83
2023-02-23T20:06:40.910Z,26.67
2023-02-23T20:09:09.212Z,26.40
2023-02-23T20:11:35.981Z,25.00
2023-02-23T20:14:04.373Z,27.27
2023-02-23T20:16:31.376Z,27.07
2023-02-23T20:18:58.496Z,29.03
2023-02-23T20:21:29.967Z,25.67
2023-02-23T20:23:56.734Z,29.97
2023-02-23T20:26:29.310Z,27.97
2023-02-23T20:28:56.823Z,29.07
2023-02-23T20:31:27.602Z,27.00
2023-02-23T20:33:56.155Z,28.40
2023-02-23T20:36:24.276Z,27.87
2023-02-23T20:38:52.072Z,30.83
2023-02-23T20:41:19.746Z,25.70
2023-02-23T20:43:46.698Z,30.70
2023-02-23T20:46:14.259Z,27.73
2023-02-23T20:48:41.282Z,30.10
2023-02-23T20:51:13.254Z,30.10
2023-02-23T20:53:40.446Z,29.37
2023-02-23T20:56:07.912Z,33.77
2023-02-23T20:58:34.637Z,36.23
2023-02-23T21:01:06.678Z,32.07
2023-02-23T21:03:34.385Z,31.80
2023-02-23T21:06:01.235Z,28.83
2023-02-23T21:08:28.948Z,27.77
2023-02-23T21:10:55.714Z,29.47
2023-02-23T21:13:23.297Z,29.90
2023-02-23T21:16:01.285Z,31.80
2023-02-23T21:18:29.012Z,31.70
2023-02-23T21:20:59.032Z,30.33
2023-02-23T21:23:25.684Z,32.20
2023-02-23T21:25:54.044Z,31.13
2023-02-23T21:28:20.867Z,31.23
2023-02-23T21:30:47.703Z,25.87
2023-02-23T21:33:14.450Z,34.97
2023-02-23T21:35:41.329Z,27.03
2023-02-23T21:38:08.398Z,28.23
2023-02-23T21:40:35.793Z,28.80
2023-02-23T21:43:06.686Z,30.43
2023-02-23T21:45:33.345Z,26.23
2023-02-23T21:47:59.966Z,27.20
2023-02-23T21:50:26.843Z,26.90
2023-02-23T21:52:56.240Z,30.27
2023-02-23T21:55:23.036Z,29.27
2023-02-23T21:57:50.567Z,26.80
2023-02-23T22:00:19.102Z,27.53
2023-02-23T22:02:46.640Z,25.30
2023-02-23T22:05:14.854Z,28.17
2023-02-23T22:07:41.612Z,29.50
2023-02-23T22:10:08.457Z,24.40
2023-02-23T22:12:35.078Z,29.20
2023-02-23T22:15:07.236Z,26.53
2023-02-23T22:17:33.927Z,26.50
2023-02-23T22:20:00.626Z,22.63
2023-02-23T22:22:27.589Z,24.83
2023-02-23T22:24:54.154Z,26.40
2023-02-23T22:27:22.192Z,27.10
2023-02-23T22:29:48.917Z,25.13
2023-02-23T22:32:17.654Z,24.67
2023-02-23T22:34:44.925Z,24.80
2023-02-23T22:37:11.633Z,21.63
2023-02-23T22:39:41.837Z,29.03
2023-02-23T22:42:12.651Z,25.30
2023-02-23T22:44:39.556Z,30.70
2023-02-23T22:47:07.416Z,27.47
2023-02-23T22:49:34.764Z,30.17
2023-02-23T22:52:01.526Z,27.83
2023-02-23T22:54:29.140Z,24.70
2023-02-23T22:56:55.815Z,27.43
2023-02-23T22:59:22.505Z,27.57
2023-02-23T23:01:50.497Z,32.27
2023-02-23T23:04:17.542Z,29.90
2023-02-23T23:06:44.752Z,29.37
2023-02-23T23:09:12.112Z,28.30
2023-02-23T23:11:41.836Z,28.87
2023-02-23T23:14:10.337Z,29.57
2023-02-23T23:16:42.341Z,27.97
2023-02-23T23:19:12.747Z,28.03
2023-02-23T23:21:41.057Z,29.83
2023-02-23T23:24:08.017Z,31.30
2023-02-23T23:26:36.236Z,31.30
2023-02-23T23:29:07.515Z,32.67
2023-02-23T23:31:35.252Z,35.57
2023-02-23T23:34:03.802Z,29.77
2023-02-23T23:36:35.584Z,31.77
2023-02-23T23:39:02.976Z,29.63
2023-02-23T23:41:30.505Z,35.60
2023-02-23T23:43:58.213Z,29.83
2023-02-23T23:46:38.412Z,32.00
2023-02-23T23:49:08.158Z,32.37
2023-02-23T23:51:39.810Z,32.83
2023-02-23T23:54:07.710Z,29.70
2023-02-23T23:56:35.868Z,30.70
2023-02-23T23:59:02.932Z,24.03
